Time;durP1;ratioP1;P1;durP2;ratioP2;P2;SDS_P1;SDS_P2;PMS_P1;PMS_P2;Temp;Humidity;BMP_temperature;BMP_pressure;BME280_temperature;BME280_humidity;BME280_pressure;Samples;Min_cycle;Max_cycle;Signal;HPM_P1;HPM_P2
2021/01/11 00:02:09;;;;;;;83.38;38.72;;;;;;;0.43;78.45;100653.97;5116258;28;20107;-63
2021/01/11 00:04:34;;;;;;;87.47;40.75;;;;;;;0.44;78.38;100661.13;5116308;28;20110;-63
2021/01/11 00:06:59;;;;;;;74.80;35.90;;;;;;;0.44;78.00;100661.94;5116406;28;20032;-63
2021/01/11 00:09:25;;;;;;;74.55;35.08;;;;;;;0.56;77.60;100659.34;5102488;28;20035;-63
2021/01/11 00:11:50;;;;;;;82.07;36.50;;;;;;;0.54;77.62;100667.13;5115407;28;20031;-63
2021/01/11 00:14:16;;;;;;;75.53;33.85;;;;;;;0.52;77.61;100663.06;5116388;28;20024;-63
2021/01/11 00:16:41;;;;;;;73.80;35.97;;;;;;;0.50;77.61;100663.41;5115650;28;20296;-62
2021/01/11 00:19:06;;;;;;;70.43;33.35;;;;;;;0.49;77.40;100656.25;5116364;28;20027;-62
2021/01/11 00:21:32;;;;;;;72.85;33.03;;;;;;;0.51;77.02;100661.44;5116235;28;20038;-63
2021/01/11 00:23:57;;;;;;;71.47;34.70;;;;;;;0.52;76.90;100661.13;5115878;28;20047;-63
2021/01/11 00:26:23;;;;;;;75.28;34.20;;;;;;;0.53;76.60;100661.94;5114911;28;20019;-63
2021/01/11 00:28:48;;;;;;;78.22;34.25;;;;;;;0.57;76.89;100665.69;5115976;28;20131;-64
2021/01/11 00:31:21;;;;;;;73.80;34.30;;;;;;;0.56;76.94;100664.06;5115701;27;20015;-63
2021/01/11 00:33:47;;;;;;;72.40;33.50;;;;;;;0.55;76.43;100671.53;5115962;28;20312;-62
2021/01/11 00:36:12;;;;;;;78.88;36.20;;;;;;;0.55;76.77;100665.22;5115776;28;20103;-61
2021/01/11 00:38:37;;;;;;;71.63;32.95;;;;;;;0.57;76.46;100660.97;5108408;28;20150;-61
2021/01/11 00:41:03;;;;;;;67.53;32.88;;;;;;;0.58;76.22;100667.31;5104094;28;20315;-63
2021/01/11 00:43:28;;;;;;;68.97;33.03;;;;;;;0.58;76.15;100667.31;5111813;28;20020;-63
2021/01/11 00:45:53;;;;;;;60.05;29.85;;;;;;;0.56;76.13;100669.59;5106263;28;20316;-63
2021/01/11 00:48:18;;;;;;;65.78;31.30;;;;;;;0.55;76.59;100667.97;5115839;28;20027;-64
2021/01/11 00:50:44;;;;;;;64.18;30.60;;;;;;;0.54;76.50;100674.63;5115852;28;20031;-63
2021/01/11 00:53:09;;;;;;;59.85;30.38;;;;;;;0.52;76.38;100668.59;5115574;28;20073;-64
2021/01/11 00:55:35;;;;;;;62.15;29.63;;;;;;;0.51;76.46;100666.97;5115714;28;20036;-64
2021/01/11 00:58:00;;;;;;;65.25;29.08;;;;;;;0.51;76.24;100664.22;5115276;28;20476;-59
2021/01/11 01:00:26;;;;;;;70.68;33.42;;;;;;;0.51;76.74;100666.97;5116114;28;20028;-60
2021/01/11 01:02:51;;;;;;;69.07;31.67;;;;;;;0.52;76.13;100668.59;5115750;28;20030;-60
2021/01/11 01:05:17;;;;;;;66.35;30.45;;;;;;;0.53;76.37;100664.69;5115807;28;20419;-61
2021/01/11 01:07:43;;;;;;;63.20;30.23;;;;;;;0.52;76.22;100669.41;5115432;28;20034;-63
2021/01/11 01:10:10;;;;;;;62.40;30.80;;;;;;;0.53;75.76;100659.97;5115303;28;20023;-63
2021/01/11 01:12:35;;;;;;;58.03;29.40;;;;;;;0.54;76.00;100664.38;5106251;28;20038;-63
2021/01/11 01:15:01;;;;;;;58.78;28.52;;;;;;;0.54;75.82;100658.81;5115688;28;20411;-63
2021/01/11 01:17:26;;;;;;;58.78;27.77;;;;;;;0.58;75.79;100656.25;5115118;28;20031;-63
2021/01/11 01:19:51;;;;;;;59.60;28.45;;;;;;;0.57;75.81;100657.38;5115215;28;20024;-63
2021/01/11 01:22:17;;;;;;;63.20;30.50;;;;;;;0.58;76.00;100657.06;5115636;28;20015;-63
2021/01/11 01:24:42;;;;;;;58.13;29.65;;;;;;;0.57;75.77;100660.16;5115683;28;20327;-63
2021/01/11 01:27:07;;;;;;;67.43;32.10;;;;;;;0.58;75.49;100651.53;5115209;28;20041;-63
2021/01/11 01:29:33;;;;;;;60.63;26.88;;;;;;;0.62;75.42;100657.22;5115237;28;20103;-63
2021/01/11 01:31:58;;;;;;;57.78;27.23;;;;;;;0.63;74.93;100652.47;5115437;28;20043;-63
2021/01/11 01:34:24;;;;;;;59.70;28.27;;;;;;;0.67;75.00;100657.03;5115123;28;20122;-59
2021/01/11 01:36:49;;;;;;;55.88;28.13;;;;;;;0.65;75.31;100651.00;5115045;28;20035;-63
2021/01/11 01:39:14;;;;;;;50.30;26.55;;;;;;;0.63;75.07;100653.28;5115631;28;20026;-62
2021/01/11 01:41:39;;;;;;;60.55;29.02;;;;;;;0.64;75.37;100651.34;5115166;28;20042;-63
2021/01/11 01:44:05;;;;;;;59.45;27.80;;;;;;;0.65;75.28;100651.00;5115141;28;20405;-63
2021/01/11 01:46:31;;;;;;;53.38;27.13;;;;;;;0.66;74.98;100658.16;5115139;28;20407;-62
2021/01/11 01:48:59;;;;;;;53.58;26.83;;;;;;;0.66;74.84;100652.63;5115094;28;20035;-63
2021/01/11 01:51:25;;;;;;;54.35;26.88;;;;;;;0.67;74.84;100664.50;5115591;28;20039;-63
2021/01/11 01:53:51;;;;;;;67.40;28.50;;;;;;;0.73;74.06;100655.69;5117221;28;20031;-63
2021/01/11 01:56:17;;;;;;;56.42;26.08;;;;;;;0.73;74.08;100657.66;5119016;28;20028;-63
2021/01/11 01:58:44;;;;;;;58.47;25.45;;;;;;;0.71;73.70;100660.75;5118722;28;20026;-63
2021/01/11 02:01:10;;;;;;;68.78;25.77;;;;;;;0.72;73.74;100648.53;5118749;28;20102;-63
2021/01/11 02:03:35;;;;;;;56.65;25.77;;;;;;;0.72;73.42;100648.53;5118622;28;20051;-63
2021/01/11 02:06:01;;;;;;;63.20;27.67;;;;;;;0.72;73.43;100639.44;5118427;28;20030;-63
2021/01/11 02:09:00;;;;;;;58.65;29.48;;;;;;;0.73;73.32;100629.97;5118557;28;20034;-63
2021/01/11 02:11:31;;;;;;;51.15;24.48;;;;;;;0.71;73.79;100622.00;5118446;28;20011;-63
2021/01/11 02:14:07;;;;;;;55.30;25.92;;;;;;;0.69;73.97;100618.78;5118683;28;20024;-61
2021/01/11 02:16:58;;;;;;;76.45;30.60;;;;;;;0.67;73.48;100617.47;5118141;28;20120;-63
2021/01/11 02:19:41;;;;;;;;;;;;;;;0.67;73.70;100621.06;5113536;28;20047;-61
2021/01/11 02:22:08;;;;;;;72.82;28.50;;;;;;;0.73;73.04;100629.97;5118506;27;20399;-62
2021/01/11 02:25:05;;;;;;;67.60;33.80;;;;;;;0.73;72.97;100632.75;5118249;28;20107;-60
2021/01/11 02:27:52;;;;;;;72.75;29.25;;;;;;;0.74;72.93;100635.19;5118266;28;20039;-59
2021/01/11 02:30:40;;;;;;;65.30;30.20;;;;;;;0.72;72.72;100634.72;5117194;28;20031;-63
2021/01/11 02:33:11;;;;;;;67.35;32.70;;;;;;;0.70;72.78;100637.00;5117585;28;20023;-63
2021/01/11 02:36:01;;;;;;;75.50;36.00;;;;;;;0.68;72.88;100638.47;5118343;28;20318;-64
2021/01/11 02:38:28;;;;;;;72.20;32.90;;;;;;;0.72;72.52;100640.25;5097664;28;20035;-63
2021/01/11 02:40:53;;;;;;;73.53;33.80;;;;;;;0.76;72.94;100635.66;5117030;28;20019;-63
2021/01/11 02:43:19;;;;;;;78.82;41.22;;;;;;;0.78;72.62;100643.63;5117766;28;20303;-63
2021/01/11 02:45:44;;;;;;;65.18;29.42;;;;;;;0.76;72.73;100627.38;5117894;28;20030;-63
2021/01/11 02:48:16;;;;;;;56.88;28.67;;;;;;;0.74;72.42;100635.19;5117588;28;20024;-63
2021/01/11 02:51:04;;;;;;;57.92;27.85;;;;;;;0.73;72.86;100646.59;5117699;28;20016;-64
2021/01/11 02:53:42;;;;;;;108.28;60.88;;;;;;;0.69;72.88;100640.91;5116464;28;20019;-64
2021/01/11 02:56:45;;;;;;;133.30;75.25;;;;;;;0.67;73.04;100645.97;5117794;28;20442;-64
2021/01/11 02:59:20;;;;;;;144.65;88.40;;;;;;;0.66;72.96;100636.03;5117635;28;20026;-63
2021/01/11 03:02:07;;;;;;;118.60;87.13;;;;;;;0.67;72.82;100645.97;5117325;28;20102;-63
2021/01/11 03:04:33;;;;;;;84.90;43.35;;;;;;;0.68;72.86;100649.53;5105221;28;20016;-63
2021/01/11 03:07:05;;;;;;;74.40;33.80;;;;;;;0.68;72.42;100647.56;5116273;28;20119;-63
2021/01/11 03:09:31;;;;;;;89.82;40.72;;;;;;;0.72;72.23;100650.50;5117789;28;20015;-63
2021/01/11 03:11:58;;;;;;;114.20;51.88;;;;;;;0.72;72.35;100645.78;5117604;28;20422;-63
2021/01/11 03:14:25;;;;;;;170.10;73.40;;;;;;;0.71;72.25;100660.75;5117153;28;20027;-62
2021/01/11 03:16:50;;;;;;;125.25;57.78;;;;;;;0.68;72.22;100658.66;5117027;28;20053;-61
2021/01/11 03:19:15;;;;;;;82.22;37.30;;;;;;;0.66;72.53;100655.41;5117317;28;20042;-62
2021/01/11 03:21:41;;;;;;;87.57;41.50;;;;;;;0.63;72.51;100655.25;5116957;28;20031;-59
2021/01/11 03:24:07;;;;;;;149.57;67.47;;;;;;;0.69;72.66;100645.63;5117299;28;20064;-63
2021/01/11 03:26:34;;;;;;;106.43;48.38;;;;;;;0.74;72.64;100639.91;5116886;28;20016;-62
2021/01/11 03:28:59;;;;;;;116.55;54.35;;;;;;;0.77;71.97;100642.00;5117084;28;20157;-63
2021/01/11 03:31:24;;;;;;;91.28;40.75;;;;;;;0.75;72.04;100645.09;5117050;28;20389;-63
2021/01/11 03:33:50;;;;;;;134.50;63.53;;;;;;;0.81;71.14;100640.19;5116904;28;20054;-63
2021/01/11 03:36:18;;;;;;;88.03;43.70;;;;;;;0.80;71.08;100625.56;5117069;28;20027;-63
2021/01/11 03:38:44;;;;;;;94.90;43.55;;;;;;;0.78;71.31;100627.84;5116595;28;20023;-63
2021/01/11 03:41:10;;;;;;;102.70;42.58;;;;;;;0.77;71.20;100633.72;5117093;28;20034;-63
2021/01/11 03:43:40;;;;;;;71.50;31.88;;;;;;;0.76;71.00;100635.66;5116653;28;20027;-62
2021/01/11 03:46:06;;;;;;;80.38;35.33;;;;;;;0.75;70.62;100638.75;5116546;28;20031;-62
2021/01/11 03:48:32;;;;;;;82.47;34.25;;;;;;;0.74;71.03;100637.16;5116751;28;20027;-63
2021/01/11 03:50:59;;;;;;;244.10;96.57;;;;;;;0.72;71.24;100639.44;5116896;28;20030;-63
2021/01/11 03:53:24;;;;;;;110.28;48.40;;;;;;;0.69;71.19;100640.91;5116488;28;20411;-63
2021/01/11 03:55:49;;;;;;;188.07;80.30;;;;;;;0.70;71.50;100631.47;5116625;28;20042;-63
2021/01/11 03:58:15;;;;;;;186.82;79.32;;;;;;;0.71;71.29;100637.81;5116749;28;20024;-63
2021/01/11 04:00:40;;;;;;;256.52;105.72;;;;;;;0.68;70.69;100639.28;5115955;28;20170;-62
2021/01/11 04:03:05;;;;;;;160.00;65.32;;;;;;;0.66;71.31;100629.69;5116678;28;20028;-63
2021/01/11 04:05:31;;;;;;;142.85;57.97;;;;;;;0.65;71.56;100634.41;5116281;28;20026;-63
2021/01/11 04:07:57;;;;;;;135.20;56.15;;;;;;;0.70;71.08;100628.69;5116729;28;20096;-63
2021/01/11 04:10:23;;;;;;;170.35;70.30;;;;;;;0.69;71.12;100632.59;5116323;28;20345;-63
2021/01/11 04:12:49;;;;;;;107.60;45.47;;;;;;;0.66;70.61;100624.97;5102175;28;20028;-63
2021/01/11 04:15:15;;;;;;;122.93;53.08;;;;;;;0.69;71.05;100629.84;5114660;28;20371;-63
2021/01/11 04:17:41;;;;;;;149.95;67.53;;;;;;;0.69;70.91;100637.31;5115788;28;20403;-63
2021/01/11 04:20:07;;;;;;;75.63;37.42;;;;;;;0.69;70.59;100634.56;5116246;28;20028;-63
2021/01/11 04:22:33;;;;;;;78.38;37.58;;;;;;;0.69;70.55;100637.31;5116185;28;20103;-64
2021/01/11 04:24:58;;;;;;;80.30;37.28;;;;;;;0.74;70.91;100640.72;5115947;28;20382;-63
2021/01/11 04:27:23;;;;;;;105.30;46.78;;;;;;;0.81;70.71;100642.97;5116207;28;20084;-63
2021/01/11 04:29:49;;;;;;;115.13;51.72;;;;;;;0.76;69.63;100638.44;5115712;28;20027;-63
2021/01/11 04:32:14;;;;;;;70.10;34.00;;;;;;;0.79;70.36;100643.31;5116084;28;20118;-62
2021/01/11 04:34:40;;;;;;;59.95;28.95;;;;;;;0.80;70.16;100633.84;5115669;28;20048;-63
2021/01/11 04:37:09;;;;;;;93.38;44.22;;;;;;;0.80;70.52;100646.88;5115112;28;20051;-63
2021/01/11 04:39:36;;;;;;;55.83;27.85;;;;;;;0.80;70.27;100649.66;5115783;28;20434;-64
2021/01/11 04:42:04;;;;;;;76.88;39.95;;;;;;;0.77;69.70;100644.78;5108003;28;20346;-63
2021/01/11 04:44:32;;;;;;;86.80;43.42;;;;;;;0.78;69.99;100644.44;5098231;28;20020;-63
2021/01/11 04:46:59;;;;;;;69.43;33.17;;;;;;;0.79;70.05;100645.25;5102316;28;20038;-63
2021/01/11 04:49:25;;;;;;;90.95;41.67;;;;;;;0.80;69.86;100656.00;5098560;28;20024;-63
2021/01/11 04:51:51;;;;;;;90.80;42.95;;;;;;;0.77;69.50;100653.06;5110544;28;20031;-64
2021/01/11 04:54:18;;;;;;;85.13;40.38;;;;;;;0.73;69.94;100647.41;5104203;28;20086;-63
2021/01/11 04:56:46;;;;;;;85.18;42.15;;;;;;;0.71;69.78;100655.22;5104682;28;20035;-63
2021/01/11 04:59:17;;;;;;;63.30;31.00;;;;;;;0.69;69.32;100651.97;5097983;28;20106;-63
2021/01/11 05:01:43;;;;;;;72.55;33.10;;;;;;;0.69;69.48;100654.72;5098334;28;20042;-63
2021/01/11 05:04:13;;;;;;;80.78;34.92;;;;;;;0.69;69.65;100654.72;5100994;28;20079;-64
2021/01/11 05:06:44;;;;;;;87.60;42.03;;;;;;;0.68;69.83;100658.66;5097220;28;20060;-64
2021/01/11 05:09:13;;;;;;;64.78;34.47;;;;;;;0.68;70.15;100657.84;5099691;28;20072;-64
2021/01/11 05:11:38;;;;;;;61.63;32.90;;;;;;;0.70;71.08;100653.59;5098103;28;20031;-64
2021/01/11 05:14:04;;;;;;;77.07;34.22;;;;;;;0.73;70.86;100647.41;5100283;28;20032;-63
2021/01/11 05:16:29;;;;;;;74.88;33.65;;;;;;;0.78;71.81;100661.03;5097702;28;20046;-64
2021/01/11 05:19:00;;;;;;;82.20;38.72;;;;;;;0.82;70.52;100655.66;5101576;28;20015;-68
2021/01/11 05:21:42;;;;;;;88.63;42.38;;;;;;;0.82;69.97;100650.97;5099657;28;20078;-62
2021/01/11 05:24:37;;;;;;;76.13;36.70;;;;;;;0.79;69.91;100657.13;5104592;28;20319;-62
2021/01/11 05:27:11;;;;;;;54.35;27.13;;;;;;;0.84;69.53;100661.72;5103038;28;20107;-63
2021/01/11 05:29:38;;;;;;;64.03;31.15;;;;;;;0.88;68.72;100665.44;5113654;28;20032;-63
2021/01/11 05:32:09;;;;;;;67.80;33.00;;;;;;;0.85;69.09;100677.16;5106328;28;20024;-63
2021/01/11 05:34:53;;;;;;;60.30;29.88;;;;;;;0.82;69.12;100677.81;5106065;28;20332;-63
2021/01/11 05:37:44;;;;;;;65.28;32.03;;;;;;;0.74;68.83;100678.63;5108971;28;20027;-63
2021/01/11 05:40:11;;;;;;;58.85;30.67;;;;;;;0.70;69.28;100677.69;5104123;28;20357;-50
2021/01/11 05:42:41;;;;;;;57.88;28.10;;;;;;;0.71;69.37;100682.88;5099097;28;20399;-59
2021/01/11 05:45:18;;;;;;;57.25;29.00;;;;;;;0.70;69.23;100681.25;5098756;28;20028;-62
2021/01/11 05:48:07;;;;;;;60.83;30.50;;;;;;;0.67;69.01;100675.56;5098362;28;20028;-63
2021/01/11 05:50:40;;;;;;;58.30;29.05;;;;;;;0.64;69.20;100677.06;5118103;28;20427;-64
2021/01/11 05:53:23;;;;;;;67.88;33.13;;;;;;;0.58;69.34;100673.66;5111524;28;20464;-63
2021/01/11 05:55:51;;;;;;;63.58;33.05;;;;;;;0.60;69.87;100670.56;5117280;28;20031;-63
2021/01/11 05:58:20;;;;;;;55.75;29.42;;;;;;;0.58;69.30;100675.59;5118994;28;20024;-57
2021/01/11 06:00:47;;;;;;;62.25;33.17;;;;;;;0.55;69.35;100676.28;5118342;28;20247;-57
2021/01/11 06:03:13;;;;;;;66.53;32.65;;;;;;;0.48;69.37;100673.16;5117930;28;20353;-58
2021/01/11 06:05:39;;;;;;;53.08;29.00;;;;;;;0.47;69.42;100677.06;5117018;28;20031;-61
2021/01/11 06:08:07;;;;;;;58.85;28.52;;;;;;;0.44;69.34;100674.97;5116758;28;20415;-63
2021/01/11 06:10:34;;;;;;;56.55;29.23;;;;;;;0.44;69.89;100680.50;5116701;27;20036;-63
2021/01/11 06:13:00;;;;;;;53.75;27.73;;;;;;;0.46;69.71;100683.75;5116925;28;20051;-63
2021/01/11 06:15:27;;;;;;;54.00;26.58;;;;;;;0.44;69.18;100694.31;5116679;28;20077;-58
2021/01/11 06:17:57;;;;;;;65.10;27.58;;;;;;;0.50;69.39;100679.19;5116360;28;20016;-57
2021/01/11 06:20:30;;;;;;;65.47;31.27;;;;;;;0.52;69.16;100679.66;5117702;28;20303;-63
2021/01/11 06:22:55;;;;;;;61.22;29.55;;;;;;;0.48;69.01;100690.56;5118400;27;20027;-58
2021/01/11 06:25:21;;;;;;;59.97;29.50;;;;;;;0.45;69.39;100684.88;5118300;28;20296;-57
2021/01/11 06:27:57;;;;;;;76.78;33.03;;;;;;;0.42;69.21;100686.34;5118490;28;20038;-51
2021/01/11 06:30:38;;;;;;;60.20;31.38;;;;;;;0.38;68.82;100692.88;5104850;28;20023;-62
2021/01/11 06:33:09;;;;;;;80.43;36.47;;;;;;;0.34;69.05;100692.72;5118071;27;20121;-62
2021/01/11 06:35:40;;;;;;;99.85;53.47;;;;;;;0.37;69.01;100688.50;5118032;28;20141;-62
2021/01/11 06:38:18;;;;;;;55.47;30.20;;;;;;;0.38;69.09;100690.13;5117727;28;20408;-60
2021/01/11 06:40:48;;;;;;;70.57;37.90;;;;;;;0.37;69.42;100689.31;5117688;28;20080;-59
2021/01/11 06:43:15;;;;;;;69.65;40.30;;;;;;;0.39;69.26;100692.53;5117955;28;20024;-62
2021/01/11 06:45:42;;;;;;;131.65;72.13;;;;;;;0.44;69.49;100689.59;5118274;28;20145;-57
2021/01/11 06:48:14;;;;;;;78.57;42.35;;;;;;;0.41;69.30;100690.25;5117775;28;20361;-58
2021/01/11 06:50:42;;;;;;;63.92;29.63;;;;;;;0.41;69.22;100683.91;5117765;28;20030;-63
2021/01/11 06:53:08;;;;;;;292.42;150.40;;;;;;;0.41;68.94;100681.97;5117926;28;20034;-64
2021/01/11 06:55:33;;;;;;;136.77;80.03;;;;;;;0.44;68.94;100677.72;5117222;28;20020;-57
2021/01/11 06:58:01;;;;;;;67.18;37.35;;;;;;;0.42;68.88;100680.81;5117796;28;20360;-63
2021/01/11 07:00:32;;;;;;;62.22;32.35;;;;;;;0.41;68.61;100689.44;5117889;28;20122;-62
2021/01/11 07:02:57;;;;;;;75.85;45.22;;;;;;;0.38;68.43;100690.13;5117578;28;20055;-62
2021/01/11 07:05:36;;;;;;;69.40;38.13;;;;;;;0.36;68.84;100684.09;5117539;28;20114;-62
2021/01/11 07:08:07;;;;;;;179.48;103.30;;;;;;;0.33;68.71;100691.09;5117264;28;20411;-62
2021/01/11 07:10:33;;;;;;;113.88;62.00;;;;;;;0.32;68.96;100694.19;5117754;28;20020;-62
2021/01/11 07:13:16;;;;;;;68.13;36.67;;;;;;;0.31;69.19;100696.16;5117813;28;20288;-62
2021/01/11 07:15:42;;;;;;;79.93;41.38;;;;;;;0.32;69.26;100695.00;5117216;28;20111;-62
2021/01/11 07:18:07;;;;;;;85.05;47.70;;;;;;;0.33;69.04;100698.59;5117456;28;20405;-64
2021/01/11 07:20:42;;;;;;;74.57;42.05;;;;;;;0.35;68.65;100696.31;5117309;28;20394;-64
2021/01/11 07:23:09;;;;;;;60.50;31.88;;;;;;;0.36;68.90;100695.97;5117012;28;20030;-63
2021/01/11 07:25:36;;;;;;;72.90;35.10;;;;;;;0.35;69.26;100707.34;5117257;28;20016;-63
2021/01/11 07:28:02;;;;;;;76.72;37.05;;;;;;;0.38;69.48;100710.28;5116835;27;20077;-58
2021/01/11 07:30:28;;;;;;;82.40;40.13;;;;;;;0.39;69.21;100719.38;5117428;27;20011;-62
2021/01/11 07:32:54;;;;;;;226.02;120.97;;;;;;;0.39;69.01;100713.84;5117042;28;20373;-62
2021/01/11 07:35:19;;;;;;;137.32;67.00;;;;;;;0.42;69.30;100716.78;5116772;28;20035;-62
2021/01/11 07:37:45;;;;;;;293.85;122.30;;;;;;;0.45;69.25;100723.59;5116701;28;20126;-62
2021/01/11 07:40:11;;;;;;;650.50;288.30;;;;;;;0.45;69.20;100718.88;5116835;28;20075;-62
2021/01/11 07:42:37;;;;;;;426.58;159.13;;;;;;;0.49;69.38;100724.56;5116930;28;20115;-62
2021/01/11 07:45:10;;;;;;;286.95;106.45;;;;;;;0.53;68.57;100726.34;5116676;28;20407;-62
2021/01/11 07:47:39;;;;;;;105.50;50.47;;;;;;;0.57;69.05;100726.53;5116642;28;20032;-64
2021/01/11 07:50:06;;;;;;;69.85;37.28;;;;;;;0.60;68.86;100731.41;5116072;28;20046;-56
2021/01/11 07:52:32;;;;;;;78.45;43.28;;;;;;;0.62;68.79;100729.13;5116314;28;20414;-62
2021/01/11 07:55:01;;;;;;;65.97;34.38;;;;;;;0.63;69.03;100735.47;5116910;28;20031;-63
2021/01/11 07:57:28;;;;;;;74.60;37.42;;;;;;;0.65;68.26;100736.78;5116354;28;20348;-63
2021/01/11 08:00:11;;;;;;;116.05;57.67;;;;;;;0.65;68.14;100742.31;5116598;28;20102;-64
2021/01/11 08:02:37;;;;;;;66.03;37.40;;;;;;;0.68;68.36;100746.38;5116588;28;20106;-63
2021/01/11 08:05:04;;;;;;;404.23;179.98;;;;;;;0.68;68.59;100754.66;5116418;28;20055;-58
2021/01/11 08:07:31;;;;;;;212.63;85.78;;;;;;;0.68;68.67;100755.47;5116074;28;20065;-59
2021/01/11 08:09:58;;;;;;;87.70;42.50;;;;;;;0.71;68.46;100756.78;5116358;28;20023;-62
2021/01/11 08:12:26;;;;;;;76.93;36.33;;;;;;;0.74;68.48;100764.41;5116418;27;20031;-62
2021/01/11 08:15:00;;;;;;;89.57;41.20;;;;;;;0.76;68.72;100762.94;5116418;28;20016;-63
2021/01/11 08:17:25;;;;;;;54.33;27.95;;;;;;;0.80;68.30;100768.63;5116102;28;20024;-62
2021/01/11 08:19:52;;;;;;;61.38;30.52;;;;;;;0.85;68.05;100772.06;5116012;28;20019;-62
2021/01/11 08:22:19;;;;;;;57.50;27.65;;;;;;;0.86;67.83;100770.94;5116050;28;20434;-62
2021/01/11 08:24:48;;;;;;;66.57;33.53;;;;;;;0.87;68.42;100764.25;5116000;28;20072;-62
2021/01/11 08:27:50;;;;;;;95.22;41.58;;;;;;;0.87;68.44;100769.78;5116206;28;20055;-62
2021/01/11 08:30:20;;;;;;;62.05;30.33;;;;;;;0.91;68.01;100765.22;5099909;28;20110;-62
2021/01/11 08:32:46;;;;;;;80.15;36.92;;;;;;;0.91;68.13;100776.28;5116102;28;20062;-63
2021/01/11 08:35:24;;;;;;;78.32;34.95;;;;;;;0.90;68.08;100774.66;5115666;28;20067;-63
2021/01/11 08:37:50;;;;;;;61.22;31.90;;;;;;;0.89;67.55;100775.81;5116038;28;20051;-62
2021/01/11 08:40:17;;;;;;;59.33;30.02;;;;;;;0.91;68.08;100772.69;5115971;28;20379;-62
2021/01/11 08:42:43;;;;;;;68.50;31.15;;;;;;;0.93;67.89;100776.75;5116116;28;20066;-63
2021/01/11 08:45:29;;;;;;;76.63;36.75;;;;;;;0.92;68.25;100783.44;5115928;28;20027;-63
2021/01/11 08:48:02;;;;;;;61.47;28.95;;;;;;;0.92;68.26;100777.09;5115873;28;20032;-62
2021/01/11 08:50:29;;;;;;;124.82;44.90;;;;;;;0.98;68.12;100780.50;5115638;28;20095;-61
2021/01/11 08:52:55;;;;;;;118.22;45.00;;;;;;;0.98;67.98;100781.31;5116171;28;20030;-62
2021/01/11 08:55:21;;;;;;;70.95;31.52;;;;;;;1.02;68.36;100779.50;5115704;28;20028;-61
2021/01/11 08:57:59;;;;;;;61.58;29.50;;;;;;;1.06;68.26;100782.44;5115841;28;20549;-62
2021/01/11 09:00:25;;;;;;;67.63;35.50;;;;;;;1.07;68.38;100784.06;5115792;28;20047;-61
2021/01/11 09:02:51;;;;;;;64.85;34.67;;;;;;;1.09;68.34;100779.00;5118264;28;20034;-62
2021/01/11 09:05:22;;;;;;;54.38;30.00;;;;;;;1.10;67.88;100777.88;5119959;28;20461;-62
2021/01/11 09:07:48;;;;;;;;;;;;;;;1.19;67.52;100775.88;5120218;28;20369;-58
2021/01/11 09:10:30;;;;;;;51.13;26.50;;;;;;;1.24;68.18;100776.53;5119776;28;19911;-55
2021/01/11 09:12:55;;;;;;;65.90;34.00;;;;;;;1.31;68.29;100772.41;5106799;28;20114;-58
2021/01/11 09:15:25;;;;;;;86.18;41.85;;;;;;;1.33;68.00;100779.25;5119743;28;20055;-62
2021/01/11 09:18:05;;;;;;;50.78;25.75;;;;;;;1.37;67.87;100782.16;5119736;28;20026;-63
2021/01/11 09:20:35;;;;;;;109.60;49.80;;;;;;;1.38;68.21;100784.63;5119709;27;20020;-58
2021/01/11 09:23:00;;;;;;;69.50;31.92;;;;;;;1.36;67.99;100778.59;5119370;28;20019;-62
2021/01/11 09:25:27;;;;;;;58.78;29.73;;;;;;;1.37;68.06;100790.47;5118691;28;20020;-62
2021/01/11 09:27:52;;;;;;;90.57;41.47;;;;;;;1.35;68.14;100790.81;5119314;28;20024;-62
2021/01/11 09:30:18;;;;;;;84.55;42.38;;;;;;;1.35;68.17;100790.81;5119605;28;20291;-62
2021/01/11 09:32:44;;;;;;;74.93;38.63;;;;;;;1.33;68.33;100779.25;5119421;28;20441;-62
2021/01/11 09:35:12;;;;;;;73.35;36.72;;;;;;;1.34;68.46;100783.66;5119068;28;20115;-62
2021/01/11 09:37:37;;;;;;;63.05;29.27;;;;;;;1.36;68.31;100780.53;5119186;28;20152;-62
2021/01/11 09:40:04;;;;;;;66.30;29.77;;;;;;;1.40;68.12;100782.34;5119240;28;20098;-62
2021/01/11 09:42:29;;;;;;;56.40;26.77;;;;;;;1.45;67.80;100781.34;5119303;27;20024;-63
2021/01/11 09:44:55;;;;;;;98.75;52.67;;;;;;;1.42;67.35;100785.59;5118901;28;20024;-63
2021/01/11 09:47:22;;;;;;;90.38;43.28;;;;;;;1.40;68.09;100789.84;5118926;28;20051;-62
2021/01/11 09:49:47;;;;;;;54.00;28.48;;;;;;;1.40;68.12;100787.06;5119084;28;20031;-59
2021/01/11 09:52:13;;;;;;;58.80;29.38;;;;;;;1.39;68.11;100791.00;5118875;27;20026;-62
2021/01/11 09:54:38;;;;;;;59.20;29.25;;;;;;;1.39;68.26;100786.25;5118972;28;20351;-62
2021/01/11 09:57:04;;;;;;;62.63;31.23;;;;;;;1.39;68.45;100789.03;5116551;28;20319;-62
2021/01/11 09:59:30;;;;;;;59.55;29.13;;;;;;;1.43;68.46;100783.63;5107199;28;20027;-62
2021/01/11 10:01:55;;;;;;;53.00;27.73;;;;;;;1.45;68.17;100800.75;5118334;28;20020;-57
2021/01/11 10:04:21;;;;;;;48.90;23.63;;;;;;;1.47;68.00;100804.78;5118815;28;20024;-63
2021/01/11 10:06:54;;;;;;;56.47;27.27;;;;;;;1.47;67.77;100810.34;5118826;28;20379;-63
2021/01/11 10:09:21;;;;;;;46.65;24.05;;;;;;;1.49;67.53;100812.78;5118565;28;20023;-58
2021/01/11 10:11:49;;;;;;;48.83;25.25;;;;;;;1.48;67.68;100802.84;5118715;28;20114;-58
2021/01/11 10:14:15;;;;;;;53.75;28.15;;;;;;;1.46;67.69;100807.91;5117494;28;20019;-62
2021/01/11 10:16:42;;;;;;;63.65;31.48;;;;;;;1.44;67.95;100805.47;5118217;27;20296;-59
2021/01/11 10:19:15;;;;;;;56.30;28.90;;;;;;;1.45;68.30;100806.28;5118492;28;20020;-62
2021/01/11 10:21:41;;;;;;;56.78;27.45;;;;;;;1.46;68.19;100803.16;5118478;27;20072;-62
2021/01/11 10:24:07;;;;;;;67.35;34.33;;;;;;;1.45;68.12;100804.31;5118976;28;20031;-61
2021/01/11 10:26:34;;;;;;;75.75;45.58;;;;;;;1.44;68.01;100801.88;5118331;28;20073;-61
2021/01/11 10:28:59;;;;;;;74.00;39.40;;;;;;;1.45;68.15;100795.19;5118234;28;20024;-59
2021/01/11 10:31:25;;;;;;;94.53;54.10;;;;;;;1.46;68.28;100789.31;5117952;28;20358;-62
2021/01/11 10:33:50;;;;;;;58.25;30.67;;;;;;;1.48;68.00;100784.25;5118331;28;20353;-58
2021/01/11 10:36:16;;;;;;;84.70;49.55;;;;;;;1.51;68.05;100780.00;5118387;28;20027;-63
2021/01/11 10:38:42;;;;;;;111.63;64.70;;;;;;;1.53;68.01;100777.72;5117839;28;20311;-57
2021/01/11 10:41:08;;;;;;;85.78;43.78;;;;;;;1.54;67.68;100771.84;5118514;27;20107;-56
2021/01/11 10:43:34;;;;;;;97.63;62.53;;;;;;;1.55;67.82;100767.94;5118041;28;20050;-56
2021/01/11 10:46:01;;;;;;;69.95;38.25;;;;;;;1.58;67.76;100765.63;5117706;27;20020;-55
2021/01/11 10:48:28;;;;;;;62.38;34.08;;;;;;;1.59;67.74;100761.72;5118076;28;20043;-63
2021/01/11 10:50:54;;;;;;;53.15;29.45;;;;;;;1.57;67.85;100761.25;5118183;28;20038;-62
2021/01/11 10:53:19;;;;;;;64.38;34.67;;;;;;;1.59;67.95;100756.19;5117794;28;20038;-56
2021/01/11 10:55:45;;;;;;;63.58;32.60;;;;;;;1.60;68.06;100752.25;5117680;28;20027;-54
2021/01/11 10:58:10;;;;;;;70.85;36.42;;;;;;;1.61;68.51;100754.69;5117956;28;20038;-63
2021/01/11 11:00:35;;;;;;;55.05;28.38;;;;;;;1.67;68.33;100747.84;5117553;28;20446;-63
2021/01/11 11:03:04;;;;;;;156.75;87.32;;;;;;;1.68;68.29;100748.66;5117671;28;20031;-63
2021/01/11 11:05:29;;;;;;;63.50;31.67;;;;;;;1.70;68.42;100746.34;5117562;28;20110;-63
2021/01/11 11:07:55;;;;;;;59.30;32.75;;;;;;;1.72;68.13;100742.09;5117515;28;20110;-58
2021/01/11 11:10:20;;;;;;;70.72;35.63;;;;;;;1.76;68.06;100745.81;5117548;28;20023;-62
2021/01/11 11:12:46;;;;;;;65.00;33.65;;;;;;;1.80;67.83;100743.19;5116283;28;20027;-62
2021/01/11 11:15:12;;;;;;;88.13;52.90;;;;;;;1.86;68.15;100741.84;5117277;28;20077;-63
2021/01/11 11:17:37;;;;;;;61.58;34.88;;;;;;;1.91;68.18;100730.56;5117154;28;20012;-54
2021/01/11 11:20:03;;;;;;;63.35;32.88;;;;;;;1.95;68.14;100725.97;5117429;28;20319;-63
2021/01/11 11:22:29;;;;;;;87.25;45.28;;;;;;;1.98;67.47;100725.31;5117514;27;20103;-62
2021/01/11 11:24:54;;;;;;;62.80;33.85;;;;;;;2.00;67.09;100731.31;5116799;28;20157;-58